createdAt,value
2023-03-28T00:02:01.774Z,12.07
2023-03-28T00:07:05.718Z,12.38
2023-03-28T00:12:08.408Z,10.55
2023-03-28T00:17:10.981Z,9.02
2023-03-28T00:22:13.814Z,11.00
2023-03-28T00:27:17.920Z,12.20
2023-03-28T00:32:20.570Z,12.07
2023-03-28T00:37:23.740Z,9.98
2023-03-28T00:42:26.522Z,11.43
2023-03-28T00:47:57.889Z,10.10
2023-03-28T00:58:17.335Z,8.55
2023-03-28T01:03:22.710Z,10.00
2023-03-28T01:08:31.348Z,9.68
2023-03-28T01:13:39.075Z,10.65
2023-03-28T01:18:42.773Z,9.18
2023-03-28T01:23:49.681Z,10.50
2023-03-28T01:29:01.310Z,9.15
2023-03-28T01:34:42.363Z,10.55
2023-03-28T01:40:00.453Z,10.25
2023-03-28T01:45:14.928Z,8.65
2023-03-28T01:50:20.751Z,8.80
2023-03-28T01:55:27.254Z,7.88
2023-03-28T02:00:40.199Z,8.07
2023-03-28T02:05:45.423Z,7.75
2023-03-28T02:10:53.910Z,7.00
2023-03-28T02:16:24.675Z,8.70
2023-03-28T02:21:58.731Z,8.82
2023-03-28T02:27:22.886Z,10.40
2023-03-28T02:32:50.534Z,11.30
2023-03-28T02:38:14.777Z,10.60
2023-03-28T02:43:49.041Z,14.33
2023-03-28T02:49:24.241Z,12.80
2023-03-28T02:54:30.033Z,14.68
2023-03-28T03:00:12.619Z,11.40
2023-03-28T03:05:16.506Z,12.07
2023-03-28T03:10:19.315Z,10.48
2023-03-28T03:15:23.210Z,13.05
2023-03-28T03:20:26.725Z,9.98
2023-03-28T03:25:31.423Z,11.27
2023-03-28T03:30:54.305Z,10.70
2023-03-28T03:36:12.878Z,11.57
2023-03-28T03:41:17.139Z,12.25
2023-03-28T03:46:20.475Z,19.85
2023-03-28T03:51:25.209Z,16.52
2023-03-28T03:56:30.872Z,14.77
2023-03-28T04:01:36.283Z,15.15
2023-03-28T04:06:52.333Z,15.60
2023-03-28T04:11:55.684Z,15.80
2023-03-28T04:16:58.655Z,18.40
2023-03-28T04:22:04.442Z,20.10
2023-03-28T04:27:09.504Z,17.67
2023-03-28T04:32:13.030Z,20.35
2023-03-28T04:37:40.969Z,19.23
2023-03-28T04:42:44.593Z,23.35
2023-03-28T04:48:01.523Z,18.50
2023-03-28T04:53:04.189Z,18.42
2023-03-28T04:58:07.300Z,22.13
2023-03-28T05:08:32.907Z,27.15
2023-03-28T05:13:36.958Z,22.40
2023-03-28T05:19:06.585Z,15.90
2023-03-28T05:24:38.594Z,19.65
2023-03-28T05:29:48.644Z,12.45
2023-03-28T05:34:53.239Z,12.18
2023-03-28T05:39:57.410Z,14.38
2023-03-28T05:45:00.460Z,16.95
2023-03-28T05:50:07.430Z,14.95
2023-03-28T05:55:10.403Z,21.23
2023-03-28T06:00:15.612Z,24.20
2023-03-28T06:05:21.344Z,24.65
2023-03-28T06:10:25.723Z,20.65
2023-03-28T06:15:46.770Z,19.17
2023-03-28T06:20:49.798Z,18.92
2023-03-28T06:25:53.052Z,18.30
2023-03-28T06:30:57.255Z,15.50
2023-03-28T06:36:00.015Z,13.55
2023-03-28T06:41:07.120Z,13.40
2023-03-28T06:46:11.591Z,15.55
2023-03-28T06:51:19.640Z,14.20
2023-03-28T06:56:22.661Z,10.98
2023-03-28T07:01:25.600Z,20.05
2023-03-28T07:06:34.297Z,14.38
2023-03-28T07:11:37.108Z,12.00
2023-03-28T07:16:40.097Z,9.90
2023-03-28T07:21:45.456Z,5.82
2023-03-28T07:26:49.035Z,8.25
2023-03-28T07:31:52.026Z,7.13
2023-03-28T07:36:54.680Z,5.00
2023-03-28T07:42:16.561Z,9.50
2023-03-28T07:47:20.126Z,8.77
2023-03-28T07:52:22.918Z,4.32
2023-03-28T07:57:26.033Z,8.30
2023-03-28T08:02:35.374Z,10.27
2023-03-28T08:07:38.076Z,8.00
2023-03-28T08:12:41.625Z,10.30
2023-03-28T08:17:45.024Z,9.63
2023-03-28T08:22:49.133Z,4.93
2023-03-28T08:28:27.176Z,8.13
2023-03-28T08:33:29.977Z,6.85
2023-03-28T08:38:33.862Z,7.53
2023-03-28T08:43:52.931Z,6.68
2023-03-28T08:48:57.976Z,9.77
2023-03-28T08:54:37.079Z,6.80
2023-03-28T08:59:43.407Z,5.82
2023-03-28T09:04:48.793Z,10.07
2023-03-28T09:10:24.869Z,7.15
2023-03-28T09:16:03.190Z,8.82
2023-03-28T09:21:16.971Z,6.63
2023-03-28T09:26:34.234Z,12.20
2023-03-28T09:31:48.148Z,8.43
2023-03-28T09:36:56.458Z,9.18
2023-03-28T09:42:08.035Z,9.93
2023-03-28T09:47:22.879Z,9.15
2023-03-28T09:52:35.725Z,8.02
2023-03-28T09:58:00.368Z,8.18
2023-03-28T10:03:04.824Z,7.55
2023-03-28T10:08:25.107Z,13.93
2023-03-28T10:13:52.240Z,7.32
2023-03-28T10:18:55.521Z,6.35
2023-03-28T10:24:17.073Z,15.88
2023-03-28T10:29:28.434Z,8.10
2023-03-28T10:34:37.098Z,9.90
2023-03-28T10:40:07.972Z,9.10
2023-03-28T10:45:41.690Z,9.82
2023-03-28T10:50:56.903Z,15.38
2023-03-28T10:56:26.722Z,9.15
2023-03-28T11:01:53.810Z,15.55
2023-03-28T11:07:18.782Z,16.73
2023-03-28T11:12:57.818Z,9.93
2023-03-28T11:18:20.289Z,8.43
2023-03-28T11:23:38.929Z,7.72
2023-03-28T11:29:41.916Z,7.68
2023-03-28T11:34:59.679Z,8.88
2023-03-28T11:40:28.284Z,8.45
2023-03-28T11:45:52.655Z,8.30
2023-03-28T11:51:13.484Z,11.57
2023-03-28T11:56:51.836Z,6.68
2023-03-28T12:02:27.636Z,5.50
2023-03-28T12:07:46.136Z,13.90
2023-03-28T12:13:31.857Z,6.57
2023-03-28T12:18:51.580Z,14.88
2023-03-28T12:24:40.335Z,6.97
2023-03-28T12:29:59.499Z,7.47
2023-03-28T12:35:18.532Z,8.85
2023-03-28T12:41:00.903Z,8.10
2023-03-28T12:46:08.426Z,11.45
2023-03-28T12:51:20.648Z,9.20
2023-03-28T12:56:23.372Z,8.02
2023-03-28T13:01:44.885Z,11.07
2023-03-28T13:07:12.540Z,11.45
2023-03-28T13:17:37.564Z,15.30
2023-03-28T13:22:57.728Z,13.23
2023-03-28T13:28:23.051Z,15.20
2023-03-28T13:33:32.645Z,12.88
2023-03-28T13:39:07.657Z,10.77
2023-03-28T13:44:19.176Z,15.75
2023-03-28T13:49:37.407Z,13.32
2023-03-28T13:54:40.493Z,13.07
2023-03-28T13:59:58.745Z,12.35
2023-03-28T14:05:34.181Z,13.13
2023-03-28T14:10:39.764Z,12.63
2023-03-28T14:15:44.708Z,9.68
2023-03-28T14:20:47.847Z,17.27
2023-03-28T14:25:51.497Z,12.90
2023-03-28T14:30:54.197Z,13.00
2023-03-28T14:36:03.192Z,11.35
2023-03-28T14:41:12.297Z,9.73
2023-03-28T14:46:15.089Z,12.25
2023-03-28T14:51:17.787Z,14.32
2023-03-28T14:56:28.343Z,14.20
2023-03-28T15:01:33.857Z,16.92
2023-03-28T15:06:38.807Z,13.57
2023-03-28T15:11:43.809Z,10.88
2023-03-28T15:16:47.409Z,11.20
2023-03-28T15:21:55.295Z,9.15
2023-03-28T15:27:02.169Z,10.63
2023-03-28T15:32:16.563Z,8.75
2023-03-28T15:37:21.964Z,15.27
2023-03-28T15:42:34.257Z,18.15
2023-03-28T15:47:37.570Z,15.30
2023-03-28T15:52:43.516Z,8.85
2023-03-28T15:57:47.918Z,11.57
2023-03-28T16:02:50.622Z,9.45
2023-03-28T16:14:53.057Z,11.65
2023-03-28T16:20:30.948Z,9.15
2023-03-28T16:25:42.024Z,11.45
2023-03-28T16:30:46.077Z,9.98
2023-03-28T16:35:48.912Z,9.93
2023-03-28T16:40:51.687Z,18.05
2023-03-28T16:45:54.418Z,13.55
2023-03-28T16:50:59.314Z,9.77
2023-03-28T16:56:02.364Z,14.93
2023-03-28T17:01:10.638Z,18.95
2023-03-28T17:06:14.251Z,12.15
2023-03-28T17:11:17.075Z,12.52
2023-03-28T17:16:20.120Z,12.45
2023-03-28T17:21:22.752Z,21.27
2023-03-28T17:26:37.272Z,12.63
2023-03-28T17:31:51.280Z,12.45
2023-03-28T17:36:54.006Z,17.38
2023-03-28T17:41:56.911Z,17.88
2023-03-28T17:47:00.806Z,15.02
2023-03-28T17:52:04.467Z,15.10
2023-03-28T17:57:08.470Z,13.73
2023-03-28T18:02:11.664Z,10.68
2023-03-28T18:07:16.086Z,12.10
2023-03-28T18:12:20.082Z,9.32
2023-03-28T18:17:23.698Z,9.00
2023-03-28T18:22:27.073Z,9.65
2023-03-28T18:27:29.735Z,10.68
2023-03-28T18:32:33.004Z,20.73
2023-03-28T18:37:35.814Z,15.75
2023-03-28T18:42:38.562Z,12.60
2023-03-28T18:47:41.469Z,13.07
2023-03-28T18:52:44.304Z,21.30
2023-03-28T18:57:46.964Z,15.65
2023-03-28T19:02:50.678Z,10.93
2023-03-28T19:07:53.400Z,11.55
2023-03-28T19:12:56.261Z,6.78
2023-03-28T19:18:02.273Z,8.85
2023-03-28T19:23:05.744Z,11.27
2023-03-28T19:28:08.498Z,11.52
2023-03-28T19:33:11.314Z,11.05
2023-03-28T19:38:13.906Z,14.85
2023-03-28T19:43:21.072Z,12.68
2023-03-28T19:48:24.294Z,11.18
2023-03-28T19:53:27.482Z,13.55
2023-03-28T19:58:31.223Z,13.43
2023-03-28T20:03:33.806Z,10.65
2023-03-28T20:08:36.514Z,13.77
2023-03-28T20:13:39.820Z,13.77
2023-03-28T20:18:42.851Z,12.70
2023-03-28T20:23:45.597Z,11.40
2023-03-28T20:28:51.365Z,11.75
2023-03-28T20:33:55.003Z,11.35
2023-03-28T20:38:57.563Z,11.95
2023-03-28T20:44:03.571Z,14.65
2023-03-28T20:49:06.477Z,11.20
2023-03-28T20:54:09.262Z,11.38
2023-03-28T20:59:12.676Z,12.55
2023-03-28T21:04:15.360Z,13.25
2023-03-28T21:09:18.365Z,13.07
2023-03-28T21:14:21.084Z,8.93
2023-03-28T21:19:23.680Z,10.63
2023-03-28T21:24:26.238Z,10.25
2023-03-28T21:29:29.142Z,9.25
2023-03-28T21:34:34.396Z,10.57
2023-03-28T21:39:37.002Z,10.85
2023-03-28T21:44:39.623Z,10.93
2023-03-28T21:49:46.143Z,15.75
2023-03-28T21:54:48.882Z,11.25
2023-03-28T21:59:51.546Z,13.25
2023-03-28T22:04:54.093Z,10.95
2023-03-28T22:10:01.209Z,11.60
2023-03-28T22:15:04.787Z,8.65
2023-03-28T22:20:09.454Z,10.73
2023-03-28T22:25:13.089Z,10.77
2023-03-28T22:30:15.741Z,9.02
2023-03-28T22:35:18.398Z,8.18
2023-03-28T22:40:21.309Z,10.15
2023-03-28T22:45:27.399Z,9.80
2023-03-28T22:50:30.372Z,11.88
2023-03-28T22:55:33.184Z,10.18
2023-03-28T23:00:36.359Z,10.70
2023-03-28T23:05:39.118Z,9.77
2023-03-28T23:10:41.714Z,10.40
2023-03-28T23:15:44.916Z,9.65
2023-03-28T23:20:51.096Z,9.77
2023-03-28T23:25:53.697Z,11.25
2023-03-28T23:30:56.297Z,11.52
2023-03-28T23:35:59.071Z,15.30
2023-03-28T23:41:01.816Z,12.20
2023-03-28T23:46:04.941Z,10.35
2023-03-28T23:51:07.635Z,9.48
2023-03-28T23:56:10.291Z,9.52
